Time;durP1;ratioP1;P1;durP2;ratioP2;P2;SDS_P1;SDS_P2;PMS_P1;PMS_P2;Temp;Humidity;BMP_temperature;BMP_pressure;BME280_temperature;BME280_humidity;BME280_pressure;Samples;Min_cycle;Max_cycle;Signal;HPM_P1;HPM_P2
2022/03/24 00:01:30;;;;;;;11.03;4.80;;;4.60;51.50;;;2.77;46.28;101103.69;10300866;28;97780;-77
2022/03/24 00:06:33;;;;;;;11.60;5.47;;;4.50;50.40;;;2.68;47.30;101097.22;10308977;28;97016;-77
2022/03/24 00:11:37;;;;;;;10.63;5.30;;;4.50;51.20;;;2.58;47.47;101098.72;10319324;28;96652;-77
2022/03/24 00:16:40;;;;;;;13.10;5.53;;;4.40;51.60;;;2.46;47.67;101091.59;10307626;28;96500;-77
2022/03/24 00:21:46;;;;;;;11.63;5.53;;;4.30;50.80;;;2.35;48.90;101090.50;10314237;28;96729;-77
2022/03/24 00:26:49;;;;;;;12.40;5.97;;;4.20;51.50;;;2.20;49.24;101083.53;10248726;28;96560;-77
2022/03/24 00:31:52;;;;;;;17.97;6.80;;;4.00;52.60;;;2.03;49.34;101071.44;10254787;28;96426;-77
2022/03/24 00:36:55;;;;;;;23.17;8.10;;;3.90;52.40;;;1.87;49.57;101071.53;10254671;28;96609;-77
2022/03/24 00:41:58;;;;;;;11.60;5.50;;;3.70;52.90;;;1.72;50.64;101079.44;10252124;28;96434;-77
2022/03/24 00:47:01;;;;;;;12.53;6.37;;;3.60;54.80;;;1.60;50.49;101073.13;10244685;28;96725;-77
2022/03/24 00:52:05;;;;;;;17.60;7.00;;;3.50;54.50;;;1.53;50.82;101070.03;10279524;28;96426;-77
2022/03/24 00:57:08;;;;;;;13.77;6.40;;;3.40;53.50;;;1.46;50.44;101070.47;10230743;28;96462;-76
2022/03/24 01:02:10;;;;;;;13.97;6.73;;;3.40;53.50;;;1.36;51.26;101080.63;10269323;28;96811;-77
2022/03/24 01:07:14;;;;;;;11.80;5.70;;;3.30;55.10;;;1.27;51.97;101062.84;10250420;28;96510;-76
2022/03/24 01:12:18;;;;;;;13.87;6.47;;;3.10;55.40;;;1.22;52.04;101062.25;10220633;28;96527;-76
2022/03/24 01:17:23;;;;;;;12.40;5.40;;;3.10;55.00;;;1.18;51.90;101053.72;10249343;28;98470;-77
2022/03/24 01:22:26;;;;;;;14.43;5.63;;;3.00;54.90;;;1.19;52.16;101044.91;10280996;28;96593;-77
2022/03/24 01:27:29;;;;;;;13.40;6.57;;;3.00;55.10;;;1.18;52.45;101038.00;10257112;28;96559;-77
2022/03/24 01:32:32;;;;;;;10.30;5.23;;;3.00;56.10;;;1.14;52.29;101028.66;10254962;28;98091;-77
2022/03/24 01:37:36;;;;;;;9.10;4.80;;;2.90;55.50;;;1.12;52.23;101035.72;10234089;28;96507;-77
2022/03/24 01:42:40;;;;;;;14.07;6.10;;;2.90;56.00;;;1.08;52.37;101023.78;10252868;28;96971;-77
2022/03/24 01:47:45;;;;;;;9.70;4.47;;;2.90;55.80;;;1.04;52.54;101017.00;10245874;28;96540;-77
2022/03/24 01:52:48;;;;;;;12.77;6.03;;;2.90;56.80;;;1.04;53.14;101027.47;10232219;28;96671;-77
2022/03/24 01:57:52;;;;;;;10.23;5.10;;;2.80;56.40;;;0.99;53.45;101019.03;10259296;28;96607;-76
2022/03/24 02:02:58;;;;;;;13.43;6.47;;;2.80;58.50;;;0.98;53.75;101015.59;10264646;28;96711;-76
2022/03/24 02:08:03;;;;;;;17.60;6.07;;;2.80;57.70;;;0.98;53.98;101014.75;10292375;28;96675;-76
2022/03/24 02:13:08;;;;;;;12.80;6.07;;;2.70;57.80;;;0.92;54.06;101020.31;10240957;28;98313;-77
2022/03/24 02:18:13;;;;;;;9.93;4.70;;;2.70;57.40;;;0.88;54.54;101022.25;10264390;28;96585;-77
2022/03/24 02:23:16;;;;;;;12.87;5.53;;;2.70;56.80;;;0.84;54.43;101025.13;10266444;28;96740;-76
2022/03/24 02:28:23;;;;;;;11.30;5.63;;;2.60;57.40;;;0.78;54.53;101026.31;10258490;28;96537;-77
2022/03/24 02:33:25;;;;;;;11.07;5.20;;;2.60;57.20;;;0.72;55.23;101030.13;10276962;28;96796;-76
2022/03/24 02:38:29;;;;;;;13.60;6.30;;;2.50;57.60;;;0.65;55.27;101020.91;10262515;28;96499;-79
2022/03/24 02:43:32;;;;;;;12.87;6.13;;;2.50;58.50;;;0.57;55.78;101022.28;10248062;28;96652;-76
2022/03/24 02:48:35;;;;;;;15.03;6.00;;;2.40;58.90;;;0.46;56.03;101005.38;10246928;28;96684;-77
2022/03/24 02:53:37;;;;;;;11.83;5.10;;;2.30;59.50;;;0.40;56.55;101020.56;10232822;28;96500;-76
2022/03/24 02:58:40;;;;;;;11.93;5.10;;;2.20;58.40;;;0.40;56.66;101010.09;10253980;28;96491;-76
2022/03/24 03:03:43;;;;;;;10.90;5.07;;;2.20;61.10;;;0.42;56.39;101018.69;10241827;28;98373;-77
2022/03/24 03:08:49;;;;;;;10.70;4.97;;;2.20;58.80;;;0.37;56.50;100998.06;10220532;28;96594;-77
2022/03/24 03:13:52;;;;;;;13.50;4.87;;;2.20;59.60;;;0.42;55.93;101005.63;10237696;28;96518;-77
2022/03/24 03:18:55;;;;;;;13.30;6.27;;;2.20;58.90;;;0.39;56.16;100998.81;10273323;28;96656;-77
2022/03/24 03:23:58;;;;;;;13.47;6.23;;;2.20;58.20;;;0.36;56.80;100992.88;10276995;28;96552;-77
2022/03/24 03:29:01;;;;;;;9.73;5.23;;;2.20;59.40;;;0.33;57.11;100995.69;10277126;28;96472;-77
2022/03/24 03:34:07;;;;;;;13.20;5.40;;;2.10;60.70;;;0.30;57.06;100988.00;10251442;28;96581;-77
2022/03/24 03:39:10;;;;;;;12.57;5.70;;;2.10;60.20;;;0.23;56.94;100985.72;10242950;28;96496;-77
2022/03/24 03:44:14;;;;;;;14.87;5.83;;;2.00;60.10;;;0.17;57.02;100991.25;10293202;28;96980;-77
2022/03/24 03:49:18;;;;;;;10.57;4.97;;;2.00;59.40;;;0.08;57.71;100997.00;10275414;28;96663;-77
2022/03/24 03:54:21;;;;;;;9.43;5.27;;;1.90;59.40;;;-0.04;58.18;100993.25;10260808;28;96493;-77
2022/03/24 03:59:24;;;;;;;15.90;6.70;;;1.80;60.80;;;-0.11;58.18;100988.44;10290422;28;96513;-77
2022/03/24 04:04:27;;;;;;;15.10;6.93;;;1.80;60.70;;;-0.14;58.61;100986.81;10274668;28;96642;-78
2022/03/24 04:09:30;;;;;;;19.53;8.13;;;1.70;60.30;;;-0.20;58.69;100979.31;10260058;28;96526;-78
2022/03/24 04:14:34;;;;;;;16.03;7.33;;;1.70;61.60;;;-0.27;59.48;100981.41;10272549;28;97789;-77
2022/03/24 04:19:37;;;;;;;22.87;8.10;;;1.60;61.00;;;-0.29;59.19;100985.03;10288763;28;96709;-77
2022/03/24 04:24:39;;;;;;;17.17;7.30;;;1.50;62.10;;;-0.31;59.57;100974.63;10283552;28;96539;-77
2022/03/24 04:29:42;;;;;;;17.17;7.70;;;1.50;61.30;;;-0.32;59.93;100970.34;10241985;28;96530;-77
2022/03/24 04:34:45;;;;;;;16.90;7.50;;;1.50;61.70;;;-0.35;59.62;100964.44;10256316;28;96595;-77
2022/03/24 04:39:48;;;;;;;22.90;9.50;;;1.50;62.90;;;-0.35;59.69;100975.75;10252767;28;96802;-77
2022/03/24 04:44:51;;;;;;;19.33;8.00;;;1.50;63.20;;;-0.27;60.24;100981.41;10238305;28;97270;-77
2022/03/24 04:49:55;;;;;;;19.03;8.90;;;1.50;64.10;;;-0.23;60.60;100973.41;10271286;28;96910;-77
2022/03/24 04:55:01;;;;;;;19.33;9.70;;;1.50;62.20;;;-0.18;60.94;100966.16;10221499;28;96602;-76
2022/03/24 05:00:06;;;;;;;16.70;8.73;;;1.60;64.90;;;-0.09;60.83;100979.59;10234624;28;96692;-76
2022/03/24 05:05:10;;;;;;;17.90;9.40;;;1.60;63.40;;;-0.03;60.39;100970.59;10234096;28;96455;-76
2022/03/24 05:10:13;;;;;;;20.53;8.30;;;1.60;64.40;;;0.03;60.29;100966.81;10240733;28;96604;-76
2022/03/24 05:15:15;;;;;;;20.47;8.70;;;1.70;63.00;;;0.12;60.10;100969.78;10226437;28;96702;-76
2022/03/24 05:20:19;;;;;;;16.37;8.43;;;1.80;64.00;;;0.18;59.59;100948.53;10237767;28;96510;-77
2022/03/24 05:25:22;;;;;;;14.23;7.23;;;1.90;63.80;;;0.35;59.16;100954.59;10310974;28;97172;-76
2022/03/24 05:30:26;;;;;;;30.73;13.43;;;2.00;63.30;;;0.50;59.22;100954.59;10345636;28;96481;-76
2022/03/24 05:35:35;;;;;;;26.13;11.23;;;2.10;63.70;;;0.68;58.70;100954.53;10343808;28;100023;-77
2022/03/24 05:40:38;;;;;;;27.57;12.13;;;2.30;63.10;;;0.88;58.52;100948.16;10328200;28;96448;-77
2022/03/24 05:45:41;;;;;;;38.63;14.13;;;2.40;62.50;;;1.18;57.49;100949.00;10339621;28;96876;-77
2022/03/24 05:50:45;;;;;;;38.13;14.30;;;2.70;61.90;;;1.45;56.96;100945.69;10312302;28;96572;-78
2022/03/24 05:55:48;;;;;;;28.63;11.73;;;2.90;61.60;;;1.65;56.55;100947.13;10319930;28;98137;-77
2022/03/24 06:00:52;;;;;;;22.90;9.60;;;3.10;61.20;;;1.83;56.44;100951.25;10312221;28;98116;-77
2022/03/24 06:05:57;;;;;;;17.97;8.67;;;3.30;61.20;;;2.13;56.04;100951.97;10338084;28;96514;-79
2022/03/24 06:11:01;;;;;;;19.50;8.77;;;3.50;60.80;;;2.41;55.60;100951.09;10300680;28;96572;-78
2022/03/24 06:16:04;;;;;;;19.07;8.10;;;3.80;60.80;;;2.72;54.44;100949.13;10309711;28;96518;-78
2022/03/24 06:21:08;;;;;;;21.97;9.53;;;4.10;59.90;;;3.02;53.38;100955.94;10313174;28;97582;-76
2022/03/24 06:26:11;;;;;;;26.67;10.03;;;4.40;59.80;;;3.26;53.11;100942.97;10332321;28;98359;-77
2022/03/24 06:31:15;;;;;;;21.80;11.17;;;4.60;59.10;;;3.53;52.61;100945.50;10322501;28;96436;-77
2022/03/24 06:36:18;;;;;;;27.40;10.80;;;4.90;58.90;;;3.79;52.21;100935.84;10331492;28;96911;-76
2022/03/24 06:41:22;;;;;;;35.53;13.03;;;5.10;58.90;;;4.02;52.55;100938.56;10312312;28;98209;-77
2022/03/24 06:46:28;;;;;;;31.77;12.57;;;5.30;59.00;;;4.31;52.31;100935.63;10291555;28;96823;-76
2022/03/24 06:51:32;;;;;;;31.80;13.73;;;5.60;58.30;;;4.59;51.49;100931.03;10316693;28;96662;-77
2022/03/24 06:56:35;;;;;;;25.03;13.47;;;5.80;57.90;;;4.90;51.10;100919.06;10314193;28;96870;-77
2022/03/24 07:01:40;;;;;;;25.47;13.10;;;6.10;58.60;;;5.21;50.37;100920.25;10322525;28;96586;-79
2022/03/24 07:06:43;;;;;;;21.63;11.80;;;6.40;57.70;;;5.55;50.13;100914.09;10336928;28;96466;-78
2022/03/24 07:11:46;;;;;;;32.43;13.97;;;6.80;57.50;;;5.94;50.11;100909.38;10294759;28;96571;-78
2022/03/24 07:16:49;;;;;;;23.70;12.20;;;7.10;57.50;;;6.35;49.56;100908.69;10294457;28;96580;-79
2022/03/24 07:21:52;;;;;;;29.10;13.90;;;7.50;57.00;;;6.80;48.70;100910.38;10287183;28;96534;-78
2022/03/24 07:27:00;;;;;;;23.07;13.30;;;7.90;56.60;;;7.32;47.35;100906.88;10225539;28;97815;-78
2022/03/24 07:32:04;;;;;;;29.03;13.60;;;8.40;55.80;;;7.83;46.60;100900.72;10277458;28;96368;-78
2022/03/24 07:37:08;;;;;;;20.60;11.30;;;8.90;55.20;;;8.39;45.38;100883.50;10275639;28;96613;-78
2022/03/24 07:42:11;;;;;;;23.23;11.27;;;9.40;54.60;;;9.03;43.68;100880.31;10237701;28;96975;-79
2022/03/24 07:47:15;;;;;;;26.50;12.10;;;10.00;53.40;;;9.73;43.01;100886.16;10237734;28;96500;-79
2022/03/24 07:52:19;;;;;;;34.17;15.23;;;10.70;52.90;;;10.26;42.64;100875.72;10241563;28;97735;-79
2022/03/24 07:57:23;;;;;;;25.43;13.27;;;11.20;52.40;;;10.74;41.29;100858.59;10275739;28;96543;-78
2022/03/24 08:02:26;;;;;;;21.17;11.57;;;11.80;52.30;;;11.63;41.10;100852.22;10237228;28;96761;-78
2022/03/24 08:07:29;;;;;;;22.47;11.87;;;12.50;51.50;;;13.18;37.92;100841.88;10235983;28;96557;-79
2022/03/24 08:12:32;;;;;;;19.40;11.83;;;13.50;50.20;;;14.43;35.57;100835.72;10252594;28;96466;-79
2022/03/24 08:17:35;;;;;;;20.27;10.82;;;14.60;49.30;;;15.34;32.92;100839.31;10253386;28;97998;-79
2022/03/24 08:22:39;;;;;;;15.73;9.02;;;15.70;47.80;;;16.26;30.44;100835.22;10252978;28;97369;-79
2022/03/24 08:27:42;;;;;;;12.82;5.53;;;16.70;45.40;;;17.30;23.63;100832.84;10235509;28;96545;-79
2022/03/24 08:32:44;;;;;;;7.65;4.13;;;17.70;38.20;;;18.18;20.83;100820.50;10258620;28;96438;-79
2022/03/24 08:37:48;;;;;;;7.00;4.55;;;18.70;34.90;;;18.82;19.48;100819.16;10241946;28;96706;-80
2022/03/24 08:42:51;;;;;;;8.30;4.85;;;19.50;33.00;;;19.47;18.46;100822.00;10238654;28;96683;-80
2022/03/24 08:47:54;;;;;;;8.00;5.05;;;20.10;31.50;;;20.04;17.27;100821.22;10248862;28;96548;-79
2022/03/24 08:52:57;;;;;;;8.43;5.25;;;20.60;29.70;;;20.75;16.96;100811.25;10278030;28;96785;-79
2022/03/24 08:58:00;;;;;;;6.95;4.90;;;21.20;29.80;;;21.32;16.08;100809.31;10286319;28;96614;-79
2022/03/24 09:03:03;;;;;;;6.43;4.72;;;21.60;29.10;;;21.49;16.14;100810.38;10275916;28;96639;-79
2022/03/24 09:08:06;;;;;;;7.38;5.00;;;21.80;28.90;;;21.61;15.49;100814.00;10226330;28;96835;-79
2022/03/24 09:13:09;;;;;;;8.15;5.35;;;22.10;28.50;;;21.92;15.32;100809.47;10270484;28;96664;-79
2022/03/24 09:18:13;;;;;;;6.70;4.80;;;22.40;28.20;;;22.35;14.95;100808.47;10234224;28;96543;-80
2022/03/24 09:23:16;;;;;;;7.40;4.97;;;22.70;28.30;;;22.62;14.76;100806.22;10263703;28;96506;-79
2022/03/24 09:28:21;;;;;;;8.23;5.15;;;22.70;27.70;;;22.53;14.58;100804.88;10271823;28;96597;-78
2022/03/24 09:33:26;;;;;;;6.88;4.95;;;22.90;27.70;;;22.37;14.40;100806.38;10235645;28;96888;-79
2022/03/24 09:38:29;;;;;;;9.23;5.20;;;22.90;27.40;;;22.34;14.67;100818.50;10252783;28;96639;-79
2022/03/24 09:43:36;;;;;;;7.50;4.93;;;22.90;27.20;;;22.71;14.30;100805.63;10256943;28;96547;-79
2022/03/24 09:48:42;;;;;;;8.60;5.13;;;23.30;27.40;;;23.32;13.97;100813.59;10258801;28;96586;-80
2022/03/24 09:53:46;;;;;;;7.22;4.75;;;23.70;27.30;;;24.11;13.75;100809.31;10260720;28;96609;-80
2022/03/24 09:58:50;;;;;;;8.75;5.00;;;24.30;27.20;;;24.72;12.92;100805.00;10257921;28;96530;-80
2022/03/24 10:04:06;;;;;;;6.47;3.95;;;24.80;27.00;;;25.23;12.49;100797.63;10239454;28;98935;-79
2022/03/24 10:09:09;;;;;;;6.47;4.07;;;25.40;25.80;;;25.52;12.03;100798.31;10233658;28;96691;-79
2022/03/24 10:14:12;;;;;;;6.93;4.43;;;25.70;26.30;;;25.07;12.01;100795.78;10256850;28;96686;-79
2022/03/24 10:19:17;;;;;;;8.02;4.43;;;25.30;25.70;;;24.66;12.40;100788.84;10249171;28;96683;-79
2022/03/24 10:24:22;;;;;;;6.90;4.30;;;25.10;25.70;;;24.90;11.88;100784.88;10306583;28;96680;-80
2022/03/24 10:29:27;;;;;;;6.13;4.53;;;25.20;25.70;;;25.06;11.51;100791.41;10348013;28;96825;-80
2022/03/24 10:34:40;;;;;;;6.60;4.20;;;25.30;25.40;;;25.27;11.04;100778.94;10333789;28;96612;-79
2022/03/24 10:40:08;;;;;;;4.47;3.80;;;25.50;25.10;;;25.54;11.29;100774.38;10317532;28;96934;-79
2022/03/24 10:45:22;;;;;;;6.75;4.10;;;25.80;24.40;;;26.01;10.79;100770.31;10302503;28;96858;-80
2022/03/24 10:50:38;;;;;;;9.23;4.88;;;26.20;25.10;;;26.40;10.78;100774.56;10301983;28;96545;-79
2022/03/24 10:55:43;;;;;;;9.40;4.95;;;26.60;25.10;;;26.63;10.12;100772.59;10296301;28;96913;-80
2022/03/24 11:00:52;;;;;;;5.28;3.90;;;26.80;24.60;;;26.51;9.90;100756.41;10327655;28;96678;-80
2022/03/24 11:06:05;;;;;;;6.10;4.60;;;26.80;24.40;;;26.51;9.74;100758.28;10280979;28;96528;-80
2022/03/24 11:11:19;;;;;;;4.97;4.15;;;26.80;23.50;;;26.40;10.40;100750.03;10327624;28;97464;-80
2022/03/24 11:16:33;;;;;;;5.65;4.55;;;26.70;24.40;;;26.10;10.63;100753.28;10334386;28;96521;-79
2022/03/24 11:21:39;;;;;;;9.73;5.30;;;26.50;24.00;;;26.04;10.94;100748.03;10350612;28;96603;-79
2022/03/24 11:26:43;;;;;;;7.05;4.60;;;26.50;24.40;;;25.97;9.88;100740.09;10316846;28;96694;-79
2022/03/24 11:31:47;;;;;;;7.47;5.18;;;26.40;23.80;;;26.07;10.91;100747.50;10267661;28;96651;-79
2022/03/24 11:36:51;;;;;;;6.65;5.38;;;26.40;24.30;;;26.32;11.12;100734.13;10245154;28;96692;-79
2022/03/24 11:41:56;;;;;;;9.10;6.40;;;26.70;24.70;;;26.47;11.66;100729.94;10225576;28;98335;-79
2022/03/24 11:47:12;;;;;;;6.45;3.80;;;26.90;25.00;;;26.98;9.75;100712.00;10236807;28;96537;-79
2022/03/24 11:52:17;;;;;;;6.93;5.53;;;27.30;23.90;;;26.78;10.07;100723.63;10272431;28;96473;-79
2022/03/24 11:57:36;;;;;;;11.35;3.67;;;27.30;24.20;;;26.44;9.61;100712.19;10277016;28;96484;-79
2022/03/24 12:02:50;;;;;;;9.43;5.85;;;27.10;22.90;;;26.08;10.78;100716.47;10244940;28;96559;-79
2022/03/24 12:08:05;;;;;;;7.53;4.80;;;26.80;23.90;;;26.30;11.49;100689.97;10236231;28;96701;-79
2022/03/24 12:13:16;;;;;;;4.97;3.75;;;26.90;24.40;;;26.26;9.79;100701.66;10238844;28;96486;-78
2022/03/24 12:18:19;;;;;;;8.85;5.03;;;26.90;24.00;;;26.10;10.44;100690.63;10275927;28;96533;-78
2022/03/24 12:23:22;;;;;;;8.38;4.88;;;26.70;23.90;;;25.95;10.51;100700.56;10240292;28;96656;-79
2022/03/24 12:28:32;;;;;;;8.13;5.55;;;26.50;24.20;;;25.68;11.01;100698.63;10275305;28;98097;-79
2022/03/24 12:33:47;;;;;;;7.40;5.28;;;26.50;24.10;;;25.56;10.84;100697.97;10291974;28;96689;-79
2022/03/24 12:38:55;;;;;;;6.47;4.95;;;26.40;24.00;;;25.63;11.56;100687.69;10302976;28;96730;-79
2022/03/24 12:44:03;;;;;;;8.35;5.50;;;26.60;24.40;;;25.92;11.01;100690.19;10312357;28;96635;-79
2022/03/24 12:49:15;;;;;;;5.90;4.97;;;26.90;24.40;;;25.95;11.46;100674.16;10332320;28;96569;-80
2022/03/24 12:54:22;;;;;;;7.45;5.80;;;27.00;24.40;;;26.03;11.15;100670.13;10307767;28;96654;-79
2022/03/24 12:59:24;;;;;;;5.72;4.85;;;27.00;24.40;;;25.92;10.81;100660.25;10313905;28;96462;-79
2022/03/24 13:04:27;;;;;;;5.60;4.20;;;26.90;24.30;;;25.93;11.05;100662.69;10306829;28;96583;-78
2022/03/24 13:09:30;;;;;;;5.97;4.40;;;27.00;24.40;;;26.14;11.31;100647.34;10292151;28;97923;-79
2022/03/24 13:14:46;;;;;;;6.43;4.55;;;27.20;24.50;;;25.87;10.91;100644.69;10292912;28;97467;-79
2022/03/24 13:19:50;;;;;;;8.98;4.30;;;27.00;24.20;;;25.35;11.27;100637.84;10283854;28;97369;-79
2022/03/24 13:25:01;;;;;;;6.53;4.38;;;26.50;24.20;;;24.97;11.01;100641.44;10312565;28;98212;-79
2022/03/24 13:30:09;;;;;;;5.20;3.90;;;26.20;24.20;;;24.76;10.92;100642.25;10274291;28;97739;-80
2022/03/24 13:35:23;;;;;;;4.85;3.78;;;26.00;24.00;;;24.59;11.37;100630.59;10236634;28;96585;-79
2022/03/24 13:40:30;;;;;;;8.18;3.58;;;25.80;24.00;;;24.75;11.36;100616.13;10232832;28;96722;-79
2022/03/24 13:45:35;;;;;;;5.15;3.50;;;25.90;24.00;;;24.63;11.29;100608.09;10243632;28;98133;-80
2022/03/24 13:50:44;;;;;;;5.50;3.67;;;25.80;24.20;;;24.45;11.70;100616.53;10276066;28;99714;-80
2022/03/24 13:55:49;;;;;;;;;;;25.50;24.30;;;24.38;11.18;100618.59;10251000;28;98608;-79
2022/03/24 14:01:03;;;;;;;4.78;3.35;;;25.50;23.90;;;24.55;11.61;100600.38;10225951;28;98679;-79
2022/03/24 14:06:15;;;;;;;4.85;4.18;;;25.70;24.10;;;24.65;11.29;100602.41;10242734;28;96598;-79
2022/03/24 14:11:20;;;;;;;5.75;4.10;;;25.80;24.10;;;24.35;11.48;100600.94;10235759;28;96721;-80
2022/03/24 14:16:28;;;;;;;7.47;4.05;;;25.60;24.10;;;24.39;11.76;100593.09;10272055;28;98236;-79
2022/03/24 14:21:59;;;;;;;6.45;4.40;;;25.60;24.70;;;24.51;11.69;100583.75;10247132;28;96647;-79
2022/03/24 14:27:03;;;;;;;7.45;4.80;;;25.50;24.20;;;24.46;11.63;100591.00;10290631;28;96616;-79
2022/03/24 14:32:21;;;;;;;6.50;4.15;;;25.60;24.30;;;24.56;12.03;100572.16;10249779;28;96615;-79
2022/03/24 14:37:25;;;;;;;6.65;4.47;;;25.70;24.40;;;24.53;11.86;100575.38;10269645;28;96584;-80
2022/03/24 14:42:28;;;;;;;9.95;4.50;;;25.70;24.50;;;24.43;11.82;100572.50;10271865;28;96707;-79
2022/03/24 14:47:32;;;;;;;5.90;4.20;;;25.50;24.50;;;24.26;12.01;100581.47;10279186;28;96785;-79
2022/03/24 14:52:35;;;;;;;7.75;4.68;;;25.30;24.40;;;24.28;12.00;100563.03;10259572;28;96586;-79
2022/03/24 14:57:38;;;;;;;5.18;4.22;;;25.40;24.40;;;24.25;11.94;100562.72;10258241;28;97950;-80
2022/03/24 15:02:42;;;;;;;6.95;3.88;;;25.20;24.30;;;24.34;11.55;100565.81;10268301;28;96917;-79
2022/03/24 15:07:47;;;;;;;7.10;4.22;;;25.30;24.20;;;24.21;11.55;100553.41;10262993;28;96820;-79
2022/03/24 15:12:50;;;;;;;5.32;4.00;;;25.10;24.10;;;24.17;11.36;100561.25;10236217;28;96581;-79
2022/03/24 15:17:55;;;;;;;6.68;4.03;;;25.10;24.10;;;24.17;11.55;100560.41;10254030;28;98821;-80
2022/03/24 15:22:58;;;;;;;7.78;3.80;;;25.10;24.60;;;24.10;11.39;100560.59;10234698;28;97363;-78
2022/03/24 15:28:02;;;;;;;5.22;3.90;;;25.10;24.20;;;24.11;11.67;100562.25;10275549;28;97000;-78
2022/03/24 15:33:06;;;;;;;5.82;3.53;;;25.10;24.20;;;24.11;11.31;100561.41;10274615;28;97113;-79
2022/03/24 15:38:10;;;;;;;6.50;4.03;;;25.00;24.00;;;23.94;11.54;100559.53;10247950;28;96670;-78
2022/03/24 15:43:13;;;;;;;6.18;3.85;;;24.90;24.00;;;23.73;11.54;100560.25;10235799;28;96450;-79
2022/03/24 15:48:16;;;;;;;6.97;4.10;;;24.70;24.10;;;23.33;11.62;100557.63;10242942;28;96829;-78
2022/03/24 15:53:19;;;;;;;7.55;4.15;;;24.30;24.00;;;22.86;12.01;100568.63;10243102;28;96671;-78
2022/03/24 15:58:22;;;;;;;5.68;4.05;;;24.00;24.30;;;22.40;12.63;100564.94;10242343;28;97507;-79
2022/03/24 16:03:25;;;;;;;10.43;4.00;;;23.60;24.50;;;21.86;13.04;100575.00;10266109;28;96957;-79
2022/03/24 16:08:28;;;;;;;8.13;4.38;;;23.10;24.80;;;21.22;13.31;100579.22;10251860;28;98049;-79
2022/03/24 16:13:31;;;;;;;6.68;5.00;;;22.50;25.00;;;20.54;14.19;100581.09;10250889;28;96836;-79
2022/03/24 16:18:34;;;;;;;6.95;4.85;;;21.80;25.40;;;19.96;14.46;100583.25;10254374;28;96558;-79
2022/03/24 16:23:37;;;;;;;9.18;5.18;;;21.20;25.80;;;19.50;15.09;100584.41;10246932;28;96493;-79
2022/03/24 16:28:40;;;;;;;8.52;4.90;;;20.70;26.10;;;19.09;15.91;100592.91;10275616;28;96674;-79
2022/03/24 16:33:43;;;;;;;8.05;5.32;;;20.30;26.30;;;18.70;16.38;100594.69;10236357;28;96510;-80
2022/03/24 16:38:46;;;;;;;10.00;5.93;;;19.90;26.70;;;18.37;16.47;100595.56;10246805;28;96625;-78
2022/03/24 16:43:50;;;;;;;9.85;6.38;;;19.60;27.10;;;18.09;17.12;100606.56;10251981;28;97677;-81
2022/03/24 16:48:53;;;;;;;10.43;5.50;;;19.30;27.40;;;17.76;17.72;100609.25;10257793;28;96653;-80
2022/03/24 16:53:55;;;;;;;7.57;5.15;;;19.00;27.70;;;17.49;17.95;100612.84;10248384;28;96639;-80
2022/03/24 16:58:58;;;;;;;10.90;5.40;;;18.80;28.00;;;17.21;18.49;100615.66;10291376;28;97847;-78
2022/03/24 17:04:01;;;;;;;10.48;6.07;;;18.50;28.20;;;16.93;19.00;100632.69;10277593;28;97590;-79
2022/03/24 17:09:05;;;;;;;12.95;6.93;;;18.20;28.40;;;16.64;19.38;100639.09;10246499;28;96637;-79
2022/03/24 17:14:08;;;;;;;12.93;5.95;;;17.90;28.70;;;16.35;19.70;100641.97;10238738;28;97732;-79
2022/03/24 17:19:11;;;;;;;12.00;6.25;;;17.70;28.90;;;16.09;19.98;100647.97;10242550;28;96691;-79
2022/03/24 17:24:14;;;;;;;11.88;7.07;;;17.40;29.10;;;15.90;20.06;100654.81;10248051;28;96719;-78
2022/03/24 17:29:17;;;;;;;10.85;6.32;;;17.20;29.40;;;15.76;20.25;100665.38;10316252;28;97093;-79
2022/03/24 17:34:20;;;;;;;11.00;7.18;;;17.10;29.60;;;15.58;20.50;100672.97;10300577;28;97497;-79
2022/03/24 17:39:23;;;;;;;19.83;12.02;;;16.90;29.80;;;15.43;20.97;100675.69;10320913;28;96495;-79
2022/03/24 17:44:29;;;;;;;9.77;6.75;;;16.70;29.80;;;15.25;20.87;100681.44;10312880;28;96591;-78
2022/03/24 17:49:33;;;;;;;18.02;11.38;;;16.60;29.90;;;15.09;21.05;100692.34;10304856;28;96754;-78
2022/03/24 17:54:36;;;;;;;16.87;9.80;;;16.40;30.00;;;14.95;21.31;100703.91;10300004;28;96599;-79
2022/03/24 17:59:39;;;;;;;10.53;7.00;;;16.30;30.00;;;14.76;21.40;100705.28;10318172;28;96577;-78
2022/03/24 18:04:43;;;;;;;13.57;7.40;;;16.10;30.50;;;14.66;21.59;100715.38;10285604;28;97383;-78
2022/03/24 18:09:46;;;;;;;13.27;7.57;;;16.00;30.30;;;14.55;21.63;100718.50;10291843;28;96450;-79
2022/03/24 18:14:49;;;;;;;17.97;11.47;;;15.80;30.50;;;14.32;22.03;100737.19;10324498;28;98248;-78
2022/03/24 18:19:52;;;;;;;14.63;7.67;;;15.70;30.70;;;14.06;22.23;100734.91;10328491;28;96640;-79
2022/03/24 18:24:55;;;;;;;10.63;7.63;;;15.50;31.30;;;13.79;22.54;100749.56;10321347;28;96597;-79
2022/03/24 18:29:58;;;;;;;14.73;8.47;;;15.30;30.90;;;13.49;22.99;100762.72;10283107;28;96647;-79
2022/03/24 18:35:01;;;;;;;12.37;7.37;;;15.00;31.20;;;13.21;23.54;100754.34;10275374;28;98402;-79
2022/03/24 18:40:06;;;;;;;11.73;7.03;;;14.80;31.40;;;13.02;23.80;100773.38;10250702;28;96659;-79
2022/03/24 18:45:10;;;;;;;15.33;9.17;;;14.60;31.60;;;12.93;23.51;100783.19;10250894;28;98680;-79
2022/03/24 18:50:13;;;;;;;31.57;18.60;;;14.40;31.70;;;12.81;24.62;100804.06;10221922;28;96704;-79
2022/03/24 18:55:17;;;;;;;26.93;14.27;;;14.30;32.80;;;12.71;24.66;100813.22;10273115;28;96679;-79
2022/03/24 19:00:20;;;;;;;20.53;11.37;;;14.20;32.90;;;12.52;25.11;100830.38;10248419;28;96694;-79
2022/03/24 19:05:24;;;;;;;25.93;11.90;;;13.90;33.00;;;12.21;25.93;100832.81;10244309;28;97696;-79
2022/03/24 19:10:28;;;;;;;23.00;11.13;;;13.70;33.50;;;11.87;26.45;100852.34;10258342;28;96666;-78
2022/03/24 19:15:31;;;;;;;19.13;9.73;;;13.40;33.70;;;11.51;26.37;100857.84;10243476;28;96681;-79
2022/03/24 19:20:34;;;;;;;18.43;9.63;;;13.10;33.80;;;11.20;27.68;100861.94;10257457;28;96735;-79
2022/03/24 19:25:38;;;;;;;20.40;9.50;;;12.90;34.50;;;10.92;28.27;100872.72;10251756;28;96559;-79
2022/03/24 19:30:41;;;;;;;20.17;10.60;;;12.60;35.60;;;10.64;28.61;100868.47;10241119;28;98939;-79
2022/03/24 19:35:49;;;;;;;18.27;8.40;;;12.30;35.40;;;10.41;29.16;100873.38;10264996;28;98306;-79
2022/03/24 19:40:52;;;;;;;17.77;7.90;;;12.00;35.90;;;10.18;29.65;100883.56;10262162;28;96582;-78
2022/03/24 19:45:55;;;;;;;15.63;8.43;;;11.80;36.20;;;9.93;30.48;100893.88;10267643;28;96967;-78
2022/03/24 19:50:59;;;;;;;24.57;8.70;;;11.60;37.10;;;9.70;31.35;100889.94;10255407;28;98190;-79
2022/03/24 19:56:02;;;;;;;19.87;8.57;;;11.40;37.30;;;9.47;31.55;100900.03;10271185;28;97250;-79
2022/03/24 20:01:05;;;;;;;16.43;8.40;;;11.10;37.80;;;9.30;31.86;100904.28;10249516;28;97115;-78
2022/03/24 20:06:09;;;;;;;13.47;7.40;;;11.00;37.90;;;9.10;32.36;100897.31;10237287;28;96649;-77
2022/03/24 20:11:12;;;;;;;18.57;8.10;;;10.80;38.50;;;8.94;32.66;100915.63;10240485;28;98577;-78
2022/03/24 20:16:18;;;;;;;21.50;9.67;;;10.60;38.60;;;8.79;33.29;100908.06;10259632;28;98453;-78
2022/03/24 20:21:21;;;;;;;17.80;10.13;;;10.40;39.00;;;8.66;32.57;100912.81;10252155;28;96765;-78
2022/03/24 20:26:24;;;;;;;15.27;8.00;;;10.30;38.90;;;8.60;32.85;100913.38;10271437;28;96592;-79
2022/03/24 20:31:27;;;;;;;13.03;6.40;;;10.20;38.90;;;8.52;32.91;100919.38;10272061;28;96474;-78
2022/03/24 20:36:35;;;;;;;13.07;6.50;;;10.10;38.90;;;8.44;33.27;100927.13;10260724;28;96675;-78
2022/03/24 20:41:38;;;;;;;14.07;5.57;;;10.10;39.50;;;8.36;33.57;100929.63;10242833;28;96667;-78
2022/03/24 20:46:41;;;;;;;16.27;6.20;;;10.00;39.60;;;8.27;33.58;100933.06;10249916;28;96969;-78
2022/03/24 20:51:44;;;;;;;15.07;6.80;;;9.90;39.80;;;8.08;34.43;100939.13;10267100;28;96555;-78